createdAt,value
2023-11-24T00:02:23.458Z,11.00
2023-11-24T00:04:51.043Z,11.10
2023-11-24T00:07:18.654Z,11.30
2023-11-24T00:09:46.221Z,11.60
2023-11-24T00:12:13.794Z,11.50
2023-11-24T00:14:41.354Z,11.40
2023-11-24T00:17:08.922Z,11.60
2023-11-24T00:19:36.549Z,11.50
2023-11-24T00:22:04.145Z,11.40
2023-11-24T00:24:31.746Z,11.30
2023-11-24T00:26:59.340Z,11.20
2023-11-24T00:29:26.913Z,11.20
2023-11-24T00:31:54.485Z,11.20
2023-11-24T00:34:22.136Z,11.20
2023-11-24T00:36:50.463Z,11.10
2023-11-24T00:39:18.016Z,11.10
2023-11-24T00:41:45.687Z,11.10
2023-11-24T00:44:13.266Z,11.10
2023-11-24T00:46:40.837Z,11.40
2023-11-24T00:49:09.192Z,11.50
2023-11-24T00:51:37.576Z,11.40
2023-11-24T00:54:05.118Z,11.40
2023-11-24T00:56:32.732Z,11.40
2023-11-24T00:59:00.314Z,11.30
2023-11-24T01:01:27.961Z,11.20
2023-11-24T01:03:55.705Z,11.20
2023-11-24T01:06:24.006Z,11.10
2023-11-24T01:08:51.528Z,11.10
2023-11-24T01:11:19.894Z,11.00
2023-11-24T01:13:48.258Z,11.00
2023-11-24T01:16:15.880Z,11.00
2023-11-24T01:18:44.241Z,11.30
2023-11-24T01:21:11.810Z,11.30
2023-11-24T01:23:39.412Z,11.20
2023-11-24T01:26:07.036Z,11.20
2023-11-24T01:28:34.625Z,11.10
2023-11-24T01:31:02.275Z,11.20
2023-11-24T01:33:30.656Z,11.10
2023-11-24T01:35:58.204Z,11.10
2023-11-24T01:38:25.785Z,11.10
2023-11-24T01:40:53.434Z,11.10
2023-11-24T01:43:21.006Z,11.40
2023-11-24T01:45:48.743Z,11.40
2023-11-24T01:48:17.030Z,11.60
2023-11-24T01:50:44.581Z,11.60
2023-11-24T01:53:12.161Z,11.50
2023-11-24T01:55:39.779Z,11.40
2023-11-24T01:58:07.390Z,11.40
2023-11-24T02:00:34.973Z,11.40
2023-11-24T02:03:02.640Z,11.40
2023-11-24T02:05:30.884Z,11.30
2023-11-24T02:07:58.444Z,11.30
2023-11-24T02:10:26.058Z,11.30
2023-11-24T02:12:53.699Z,11.60
2023-11-24T02:15:21.292Z,11.60
2023-11-24T02:17:48.966Z,11.50
2023-11-24T02:20:16.522Z,11.40
2023-11-24T02:22:44.123Z,11.40
2023-11-24T02:25:11.758Z,11.40
2023-11-24T02:27:39.407Z,11.40
2023-11-24T02:30:07.093Z,11.40
2023-11-24T02:32:37.505Z,11.70
2023-11-24T02:35:05.092Z,11.60
2023-11-24T02:37:32.656Z,11.60
2023-11-24T02:40:01.184Z,12.00
2023-11-24T02:42:28.632Z,12.00
2023-11-24T02:44:56.936Z,11.80
2023-11-24T02:47:24.617Z,11.80
2023-11-24T02:49:52.153Z,11.60
2023-11-24T02:52:19.718Z,11.90
2023-11-24T02:54:47.349Z,11.80
2023-11-24T02:57:14.905Z,11.70
2023-11-24T02:59:42.491Z,11.60
2023-11-24T03:02:10.239Z,11.50
2023-11-24T03:04:37.729Z,11.40
2023-11-24T03:07:05.339Z,11.20
2023-11-24T03:09:32.949Z,10.80
2023-11-24T03:12:00.473Z,10.40
2023-11-24T03:14:28.024Z,10.40
2023-11-24T03:16:55.776Z,10.00
2023-11-24T03:19:23.309Z,9.60
2023-11-24T03:21:51.045Z,9.40
2023-11-24T03:24:18.515Z,9.20
2023-11-24T03:26:46.087Z,9.00
2023-11-24T03:29:13.653Z,9.00
2023-11-24T03:31:42.054Z,8.80
2023-11-24T03:34:09.692Z,8.90
2023-11-24T03:36:37.244Z,8.80
2023-11-24T03:39:04.849Z,8.90
2023-11-24T03:41:32.432Z,8.90
2023-11-24T03:44:00.022Z,8.90
2023-11-24T03:46:27.665Z,9.00
2023-11-24T03:48:55.210Z,9.00
2023-11-24T03:51:22.756Z,9.00
2023-11-24T03:53:50.542Z,9.10
2023-11-24T03:56:18.110Z,9.10
2023-11-24T03:58:45.685Z,9.20
2023-11-24T04:01:14.201Z,9.20
2023-11-24T04:03:41.656Z,9.20
2023-11-24T04:06:10.172Z,9.20
2023-11-24T04:08:37.645Z,9.20
2023-11-24T04:11:05.228Z,9.20
2023-11-24T04:13:33.582Z,9.50
2023-11-24T04:16:01.323Z,9.50
2023-11-24T04:18:28.824Z,9.40
2023-11-24T04:20:56.343Z,9.30
2023-11-24T04:23:24.040Z,9.20
2023-11-24T04:25:51.599Z,9.10
2023-11-24T04:28:19.932Z,9.00
2023-11-24T04:30:47.779Z,9.00
2023-11-24T04:33:15.299Z,8.90
2023-11-24T04:35:42.895Z,8.90
2023-11-24T04:38:10.608Z,8.90
2023-11-24T04:40:38.211Z,8.80
2023-11-24T04:43:06.550Z,9.10
2023-11-24T04:45:34.254Z,9.00
2023-11-24T04:48:01.789Z,9.30
2023-11-24T04:50:29.302Z,9.50
2023-11-24T04:52:56.937Z,9.30
2023-11-24T04:55:24.516Z,9.20
2023-11-24T04:57:52.251Z,9.10
2023-11-24T05:00:19.757Z,9.00
2023-11-24T05:02:47.360Z,9.00
2023-11-24T05:05:14.880Z,8.90
2023-11-24T05:07:42.531Z,8.90
2023-11-24T05:10:10.223Z,8.90
2023-11-24T05:12:38.547Z,8.90
2023-11-24T05:15:08.963Z,8.80
2023-11-24T05:17:36.624Z,8.80
2023-11-24T05:20:04.137Z,9.20
2023-11-24T05:22:31.776Z,9.10
2023-11-24T05:24:59.382Z,9.00
2023-11-24T05:27:26.920Z,9.00
2023-11-24T05:29:54.561Z,9.00
2023-11-24T05:32:22.157Z,9.20
2023-11-24T05:34:49.705Z,9.10
2023-11-24T05:37:17.345Z,9.00
2023-11-24T05:39:44.943Z,8.90
2023-11-24T05:42:12.491Z,8.80
2023-11-24T05:44:40.886Z,9.00
2023-11-24T05:47:09.229Z,8.90
2023-11-24T05:49:36.798Z,8.90
2023-11-24T05:52:04.514Z,8.80
2023-11-24T05:54:32.021Z,8.70
2023-11-24T05:56:59.597Z,8.60
2023-11-24T05:59:30.022Z,8.90
2023-11-24T06:01:54.883Z,8.80
2023-11-24T06:04:23.255Z,8.70
2023-11-24T06:06:50.804Z,8.60
2023-11-24T06:09:18.366Z,8.60
2023-11-24T06:11:45.960Z,8.50
2023-11-24T06:14:13.585Z,8.50
2023-11-24T06:16:41.205Z,8.50
2023-11-24T06:19:08.788Z,8.40
2023-11-24T06:21:36.389Z,8.40
2023-11-24T06:24:03.940Z,8.30
2023-11-24T06:26:31.517Z,8.30
2023-11-24T06:28:59.157Z,8.30
2023-11-24T06:31:26.755Z,8.60
2023-11-24T06:33:55.161Z,8.40
2023-11-24T06:36:22.712Z,8.40
2023-11-24T06:38:50.286Z,8.40
2023-11-24T06:41:17.845Z,8.30
2023-11-24T06:43:45.543Z,8.30
2023-11-24T06:46:13.226Z,8.30
2023-11-24T06:48:40.715Z,8.30
2023-11-24T06:51:09.064Z,8.60
2023-11-24T06:53:37.402Z,8.80
2023-11-24T06:56:04.970Z,8.80
2023-11-24T06:58:32.604Z,8.70
2023-11-24T07:01:00.299Z,8.70
2023-11-24T07:03:27.804Z,8.60
2023-11-24T07:05:55.397Z,8.50
2023-11-24T07:08:22.973Z,8.80
2023-11-24T07:10:50.594Z,8.70
2023-11-24T07:13:18.186Z,8.60
2023-11-24T07:15:45.845Z,8.60
2023-11-24T07:18:13.396Z,8.50
2023-11-24T07:20:40.979Z,8.50
2023-11-24T07:23:08.549Z,8.70
2023-11-24T07:25:36.124Z,8.60
2023-11-24T07:28:07.321Z,8.70
2023-11-24T07:30:34.896Z,8.70
2023-11-24T07:33:02.401Z,8.60
2023-11-24T07:35:30.023Z,8.50
2023-11-24T07:37:57.590Z,8.50
2023-11-24T07:40:25.178Z,8.40
2023-11-24T07:42:53.618Z,8.60
2023-11-24T07:45:21.138Z,8.60
2023-11-24T07:47:48.771Z,8.50
2023-11-24T07:50:16.553Z,8.40
2023-11-24T07:52:44.161Z,8.30
2023-11-24T07:55:11.810Z,8.30
2023-11-24T07:57:39.354Z,8.20
2023-11-24T08:00:07.166Z,8.10
2023-11-24T08:02:34.799Z,8.30
2023-11-24T08:05:03.139Z,8.00
2023-11-24T08:07:30.714Z,8.00
2023-11-24T08:09:58.304Z,7.90
2023-11-24T08:12:25.920Z,7.80
2023-11-24T08:14:53.496Z,7.80
2023-11-24T08:17:21.051Z,7.70
2023-11-24T08:19:48.692Z,7.70
2023-11-24T08:22:16.278Z,7.60
2023-11-24T08:24:43.843Z,7.70
2023-11-24T08:27:11.433Z,7.70
2023-11-24T08:29:39.013Z,7.70
2023-11-24T08:32:07.453Z,7.70
2023-11-24T08:34:35.083Z,7.70
2023-11-24T08:37:03.727Z,7.70
2023-11-24T08:39:30.948Z,7.70
2023-11-24T08:41:58.578Z,7.70
2023-11-24T08:44:26.216Z,7.70
2023-11-24T08:46:53.749Z,7.70
2023-11-24T08:49:21.348Z,7.80
2023-11-24T08:51:49.023Z,7.80
2023-11-24T08:54:16.487Z,7.80
2023-11-24T08:56:44.120Z,7.90
2023-11-24T08:59:12.465Z,8.00
2023-11-24T09:01:40.210Z,8.00
2023-11-24T09:04:07.728Z,8.10
2023-11-24T09:06:35.269Z,8.10
2023-11-24T09:09:02.794Z,8.50
2023-11-24T09:11:30.408Z,8.50
2023-11-24T09:13:57.981Z,8.40
2023-11-24T09:16:25.649Z,8.70
2023-11-24T09:18:53.182Z,8.60
2023-11-24T09:21:21.521Z,8.50
2023-11-24T09:23:49.112Z,8.50
2023-11-24T09:26:16.738Z,8.50
2023-11-24T09:28:44.281Z,8.50
2023-11-24T09:31:12.037Z,8.50
2023-11-24T09:33:39.603Z,8.50
2023-11-24T09:36:07.307Z,8.50
2023-11-24T09:38:34.871Z,8.80
2023-11-24T09:41:03.256Z,8.70
2023-11-24T09:43:30.828Z,8.70
2023-11-24T09:45:58.443Z,8.60
2023-11-24T09:48:26.072Z,8.60
2023-11-24T09:50:53.619Z,8.60
2023-11-24T09:53:21.191Z,8.50
2023-11-24T09:55:48.841Z,8.50
2023-11-24T09:58:16.501Z,8.50
2023-11-24T10:00:44.030Z,8.50
2023-11-24T10:03:11.639Z,8.50
2023-11-24T10:05:39.197Z,8.40
2023-11-24T10:08:06.819Z,8.50
2023-11-24T10:10:35.214Z,8.50
2023-11-24T10:13:05.765Z,8.50
2023-11-24T10:15:33.357Z,8.50
2023-11-24T10:18:01.189Z,8.50
2023-11-24T10:20:28.537Z,8.50
2023-11-24T10:22:58.825Z,8.50
2023-11-24T10:25:27.228Z,8.50
2023-11-24T10:28:06.486Z,8.50
2023-11-24T10:30:33.847Z,8.50
2023-11-24T10:33:01.489Z,8.50
2023-11-24T10:35:28.980Z,8.50
2023-11-24T10:37:56.620Z,8.50
2023-11-24T10:40:24.231Z,8.40
2023-11-24T10:42:52.053Z,8.70
2023-11-24T10:45:22.712Z,8.90
2023-11-24T10:47:56.750Z,8.80
2023-11-24T10:50:24.269Z,8.80
2023-11-24T10:53:09.842Z,8.70
2023-11-24T10:55:38.131Z,8.60
2023-11-24T10:58:05.751Z,8.60
2023-11-24T11:00:33.371Z,8.50
2023-11-24T11:03:00.925Z,8.50
2023-11-24T11:05:47.157Z,8.50
2023-11-24T11:08:27.026Z,8.50
2023-11-24T11:10:57.382Z,8.40
2023-11-24T11:13:24.983Z,8.40
2023-11-24T11:15:52.560Z,8.40
2023-11-24T11:18:20.916Z,8.40
2023-11-24T11:20:48.501Z,8.30
2023-11-24T11:23:18.714Z,8.40
2023-11-24T11:25:46.327Z,8.30
2023-11-24T11:28:19.892Z,8.30
2023-11-24T11:30:48.291Z,8.30
2023-11-24T11:33:15.837Z,8.30
2023-11-24T11:35:46.524Z,8.30
2023-11-24T11:38:14.878Z,8.60
2023-11-24T11:40:42.504Z,8.50
2023-11-24T11:43:10.255Z,8.50
2023-11-24T11:45:56.218Z,8.80
2023-11-24T11:48:23.749Z,8.70
2023-11-24T11:50:51.325Z,8.60
2023-11-24T11:53:19.725Z,8.90
2023-11-24T11:55:48.074Z,8.50
2023-11-24T11:58:15.655Z,8.50
2023-11-24T12:00:43.274Z,8.20
2023-11-24T12:03:10.819Z,7.90
2023-11-24T12:05:38.356Z,8.00
2023-11-24T12:08:05.969Z,7.70
2023-11-24T12:10:33.541Z,7.40
2023-11-24T12:13:01.898Z,7.10
2023-11-24T12:15:29.495Z,7.00
2023-11-24T12:17:57.146Z,6.90
2023-11-24T12:20:24.632Z,6.80
2023-11-24T12:22:52.266Z,6.70
2023-11-24T12:25:20.647Z,6.70
2023-11-24T12:27:48.236Z,6.70
2023-11-24T12:30:15.822Z,6.70
2023-11-24T12:32:43.402Z,6.80
2023-11-24T12:35:10.977Z,7.10
2023-11-24T12:37:50.007Z,7.00
2023-11-24T12:40:18.395Z,7.60
2023-11-24T12:42:45.950Z,7.60
2023-11-24T12:45:13.631Z,7.40
2023-11-24T12:47:42.530Z,7.30
2023-11-24T12:50:08.678Z,7.30
2023-11-24T12:52:36.299Z,7.20
2023-11-24T12:55:03.894Z,7.20
2023-11-24T12:57:31.454Z,7.20
2023-11-24T12:59:59.071Z,7.20
2023-11-24T13:02:26.742Z,7.10
2023-11-24T13:04:55.162Z,7.10
2023-11-24T13:07:22.763Z,7.10
2023-11-24T13:09:50.269Z,7.10
2023-11-24T13:12:18.904Z,7.10
2023-11-24T13:14:45.443Z,7.00
2023-11-24T13:17:13.886Z,7.00
2023-11-24T13:19:41.374Z,7.00
2023-11-24T13:22:09.826Z,7.30
2023-11-24T13:24:37.357Z,7.30
2023-11-24T13:27:04.997Z,7.30
2023-11-24T13:29:33.348Z,7.10
2023-11-24T13:32:01.682Z,7.10
2023-11-24T13:34:29.330Z,7.10
2023-11-24T13:36:59.033Z,7.00
2023-11-24T13:39:24.451Z,7.00
2023-11-24T13:41:52.042Z,7.00
2023-11-24T13:44:22.414Z,6.90
2023-11-24T13:46:52.482Z,6.90
2023-11-24T13:49:20.006Z,6.80
2023-11-24T13:51:48.402Z,6.90
2023-11-24T13:54:15.951Z,6.90
2023-11-24T13:56:43.515Z,6.90
2023-11-24T13:59:11.158Z,6.90
2023-11-24T14:01:38.863Z,7.00
2023-11-24T14:04:06.360Z,7.00
2023-11-24T14:06:33.932Z,7.00
2023-11-24T14:09:02.261Z,6.90
2023-11-24T14:11:29.816Z,6.90
2023-11-24T14:13:57.504Z,6.80
2023-11-24T14:16:25.088Z,7.00
2023-11-24T14:18:52.670Z,6.80
2023-11-24T14:21:20.227Z,6.70
2023-11-24T14:23:47.783Z,6.60
2023-11-24T14:26:15.330Z,6.50
2023-11-24T14:28:42.961Z,6.40
2023-11-24T14:31:11.304Z,6.30
2023-11-24T14:33:38.848Z,6.20
2023-11-24T14:36:06.573Z,6.20
2023-11-24T14:38:34.116Z,6.10
2023-11-24T14:41:02.463Z,6.70
2023-11-24T14:43:30.151Z,6.70
2023-11-24T14:45:57.718Z,6.60
2023-11-24T14:48:25.219Z,6.40
2023-11-24T14:50:52.829Z,6.30
2023-11-24T14:53:20.389Z,6.20
2023-11-24T14:55:47.955Z,6.10
2023-11-24T14:58:19.197Z,6.00
2023-11-24T15:00:43.929Z,5.90
2023-11-24T15:03:11.484Z,5.90
2023-11-24T15:05:44.866Z,5.80
2023-11-24T15:08:12.444Z,5.80
2023-11-24T15:10:43.049Z,5.70
2023-11-24T15:13:10.639Z,5.70
2023-11-24T15:15:41.594Z,5.60
2023-11-24T15:18:09.195Z,5.60
2023-11-24T15:20:39.449Z,5.90
2023-11-24T15:23:07.027Z,5.80
2023-11-24T15:25:37.514Z,5.80
2023-11-24T15:28:05.989Z,5.70
2023-11-24T15:30:33.547Z,5.60
2023-11-24T15:33:01.922Z,5.90
2023-11-24T15:35:29.531Z,5.90
2023-11-24T15:37:57.106Z,5.90
2023-11-24T15:40:24.707Z,6.10
2023-11-24T15:42:52.350Z,6.00
2023-11-24T15:45:19.849Z,5.90
2023-11-24T15:47:50.457Z,5.80
2023-11-24T15:50:15.038Z,5.70
2023-11-24T15:52:42.603Z,5.70
2023-11-24T15:55:10.174Z,5.60
2023-11-24T15:57:38.556Z,5.60
2023-11-24T16:00:07.141Z,5.50
2023-11-24T16:02:34.717Z,5.50
2023-11-24T16:05:03.085Z,5.60
2023-11-24T16:07:31.458Z,5.60
2023-11-24T16:09:59.105Z,5.60
2023-11-24T16:12:26.631Z,5.60
2023-11-24T16:14:54.218Z,5.70
2023-11-24T16:17:21.842Z,5.60
2023-11-24T16:19:50.157Z,5.90
2023-11-24T16:22:18.517Z,5.80
2023-11-24T16:24:46.070Z,5.80
2023-11-24T16:27:13.691Z,6.10
2023-11-24T16:29:41.269Z,6.10
2023-11-24T16:32:09.211Z,6.00
2023-11-24T16:34:36.745Z,5.90
2023-11-24T16:37:05.167Z,5.70
2023-11-24T16:39:32.642Z,5.70
2023-11-24T16:42:00.292Z,5.70
2023-11-24T16:44:27.865Z,5.70
2023-11-24T16:46:58.848Z,5.60
2023-11-24T16:49:26.105Z,5.60
2023-11-24T16:51:53.766Z,5.50
2023-11-24T16:54:21.192Z,5.50
2023-11-24T16:56:48.828Z,5.40
2023-11-24T16:59:16.403Z,5.40
2023-11-24T17:01:44.009Z,5.70
2023-11-24T17:04:11.689Z,5.60
2023-11-24T17:06:39.196Z,5.80
2023-11-24T17:09:06.771Z,5.70
2023-11-24T17:11:35.165Z,6.20
2023-11-24T17:14:03.517Z,6.00
2023-11-24T17:16:31.140Z,6.00
2023-11-24T17:18:58.726Z,5.80
2023-11-24T17:21:26.258Z,5.70
2023-11-24T17:23:53.832Z,5.60
2023-11-24T17:26:21.492Z,5.60
2023-11-24T17:28:49.082Z,5.50
2023-11-24T17:31:16.688Z,5.50
2023-11-24T17:33:44.273Z,5.40
2023-11-24T17:36:14.520Z,5.40
2023-11-24T17:38:42.092Z,5.30
2023-11-24T17:41:09.733Z,5.30
2023-11-24T17:43:37.461Z,5.50
2023-11-24T17:46:04.982Z,5.40
2023-11-24T17:48:32.593Z,5.70
2023-11-24T17:51:02.827Z,5.80
2023-11-24T17:53:33.097Z,5.70
2023-11-24T17:56:00.734Z,5.60
2023-11-24T17:58:28.350Z,5.40
2023-11-24T18:00:55.895Z,5.40
2023-11-24T18:03:23.599Z,5.30
2023-11-24T18:05:51.061Z,5.20
2023-11-24T18:08:18.651Z,5.20
2023-11-24T18:10:46.253Z,5.20
2023-11-24T18:13:13.862Z,5.10
2023-11-24T18:15:41.411Z,5.10
2023-11-24T18:18:09.108Z,5.10
2023-11-24T18:20:36.629Z,5.10
2023-11-24T18:23:04.205Z,5.00
2023-11-24T18:25:32.639Z,5.00
2023-11-24T18:28:00.955Z,5.00
2023-11-24T18:30:28.481Z,5.00
2023-11-24T18:32:56.144Z,4.90
2023-11-24T18:35:23.709Z,4.90
2023-11-24T18:37:51.294Z,5.20
2023-11-24T18:40:18.946Z,5.20
2023-11-24T18:42:48.886Z,5.40
2023-11-24T18:45:17.229Z,5.40
2023-11-24T18:47:44.904Z,5.40
2023-11-24T18:50:12.441Z,5.30
2023-11-24T18:52:40.024Z,5.50
2023-11-24T18:55:08.514Z,5.30
2023-11-24T18:57:36.004Z,5.30
2023-11-24T19:00:03.604Z,5.20
2023-11-24T19:02:31.231Z,5.20
2023-11-24T19:04:59.523Z,5.10
2023-11-24T19:07:27.145Z,5.00
2023-11-24T19:09:54.728Z,5.10
2023-11-24T19:12:22.312Z,5.00
2023-11-24T19:14:49.857Z,5.00
2023-11-24T19:17:17.487Z,5.00
2023-11-24T19:19:45.052Z,4.90
2023-11-24T19:22:12.700Z,4.90
2023-11-24T19:24:40.260Z,4.80
2023-11-24T19:27:08.593Z,4.70
2023-11-24T19:29:36.176Z,4.60
2023-11-24T19:32:03.944Z,4.60
2023-11-24T19:34:31.395Z,4.60
2023-11-24T19:39:38.860Z,4.50
2023-11-24T19:42:06.486Z,4.80
2023-11-24T19:44:34.053Z,4.70
2023-11-24T19:47:02.484Z,4.60
2023-11-24T19:49:30.803Z,4.60
2023-11-24T19:51:58.307Z,4.50
2023-11-24T19:54:25.924Z,4.50
2023-11-24T19:56:53.485Z,4.50
2023-11-24T19:59:21.051Z,4.50
2023-11-24T20:01:48.776Z,4.50
2023-11-24T20:04:16.277Z,4.50
2023-11-24T20:06:43.792Z,4.50
2023-11-24T20:09:14.261Z,4.50
2023-11-24T20:11:41.864Z,4.50
2023-11-24T20:14:09.444Z,4.50
2023-11-24T20:16:37.212Z,4.50
2023-11-24T20:19:04.720Z,4.50
2023-11-24T20:21:32.222Z,4.60
2023-11-24T20:23:59.892Z,4.90
2023-11-24T20:26:27.423Z,4.90
2023-11-24T20:28:54.981Z,4.90
2023-11-24T20:31:22.677Z,4.80
2023-11-24T20:33:50.200Z,4.80
2023-11-24T20:36:20.689Z,4.80
2023-11-24T20:38:50.796Z,4.80
2023-11-24T20:41:19.140Z,4.80
2023-11-24T20:43:46.688Z,4.80
2023-11-24T20:46:14.412Z,4.80
2023-11-24T20:48:41.874Z,4.80
2023-11-24T20:51:09.453Z,5.10
2023-11-24T20:53:37.080Z,5.00
2023-11-24T20:56:04.638Z,5.00
2023-11-24T20:58:32.232Z,5.00
2023-11-24T21:00:59.977Z,4.90
2023-11-24T21:03:27.422Z,5.00
2023-11-24T21:05:54.991Z,4.90
2023-11-24T21:08:22.609Z,5.00
2023-11-24T21:10:50.167Z,5.00
2023-11-24T21:13:17.756Z,5.00
2023-11-24T21:15:45.356Z,5.00
2023-11-24T21:18:12.967Z,5.00
2023-11-24T21:20:40.496Z,5.10
2023-11-24T21:23:08.160Z,5.00
2023-11-24T21:25:35.735Z,5.10
2023-11-24T21:28:03.273Z,5.00
2023-11-24T21:30:30.858Z,5.00
2023-11-24T21:32:59.302Z,5.00
2023-11-24T21:35:26.747Z,5.00
2023-11-24T21:37:54.342Z,5.00
2023-11-24T21:40:21.923Z,5.00
2023-11-24T21:42:50.241Z,5.00
2023-11-24T21:45:17.949Z,5.00
2023-11-24T21:47:46.348Z,5.00
2023-11-24T21:50:13.903Z,5.00
2023-11-24T21:52:41.501Z,5.00
2023-11-24T21:55:09.084Z,5.00
2023-11-24T21:57:36.637Z,4.90
2023-11-24T22:00:04.237Z,4.90
2023-11-24T22:02:33.933Z,5.30
2023-11-24T22:05:00.274Z,5.30
2023-11-24T22:07:27.781Z,5.20
2023-11-24T22:09:55.337Z,5.10
2023-11-24T22:12:22.879Z,5.10
2023-11-24T22:14:50.500Z,5.00
2023-11-24T22:17:18.861Z,4.90
2023-11-24T22:19:46.398Z,4.90
2023-11-24T22:22:14.039Z,4.90
2023-11-24T22:24:41.644Z,4.90
2023-11-24T22:27:09.152Z,4.90
2023-11-24T22:29:37.662Z,4.80
2023-11-24T22:32:04.345Z,4.80
2023-11-24T22:34:32.756Z,4.80
2023-11-24T22:37:00.554Z,4.70
2023-11-24T22:39:27.894Z,4.70
2023-11-24T22:41:55.462Z,4.70
2023-11-24T22:44:23.093Z,4.70
2023-11-24T22:46:50.706Z,4.70
2023-11-24T22:49:18.283Z,5.10
2023-11-24T22:51:45.857Z,5.00
2023-11-24T22:54:13.421Z,4.90
2023-11-24T22:56:41.001Z,4.90
2023-11-24T22:59:08.792Z,4.80
2023-11-24T23:01:36.548Z,4.80
2023-11-24T23:04:06.728Z,4.80
2023-11-24T23:06:34.884Z,5.10
2023-11-24T23:09:03.217Z,5.10
2023-11-24T23:11:30.782Z,5.10
2023-11-24T23:13:58.425Z,5.10
2023-11-24T23:16:26.161Z,5.00
2023-11-24T23:18:53.692Z,4.90
2023-11-24T23:21:23.838Z,4.90
2023-11-24T23:23:48.763Z,4.90
2023-11-24T23:26:16.335Z,4.90
2023-11-24T23:28:44.005Z,5.20
2023-11-24T23:31:14.604Z,5.20
2023-11-24T23:33:42.224Z,5.20
2023-11-24T23:36:09.841Z,5.10
2023-11-24T23:38:37.485Z,5.20
2023-11-24T23:41:04.987Z,5.20
2023-11-24T23:43:32.619Z,5.10
2023-11-24T23:46:00.300Z,5.10
2023-11-24T23:48:27.724Z,5.10
2023-11-24T23:50:55.346Z,5.10
2023-11-24T23:53:26.360Z,5.00
2023-11-24T23:55:53.919Z,5.00
2023-11-24T23:58:21.577Z,5.10
